sensor_id;sensor_type;location;lat;lon;timestamp;P1;durP1;ratioP1;P2;durP2;ratioP2
70426;SDS011;57872;55.432;37.248;2023-06-14T00:00:28;14.98;;;7.85;;
70426;SDS011;57872;55.432;37.248;2023-06-14T00:05:29;14.48;;;7.35;;
70426;SDS011;57872;55.432;37.248;2023-06-14T00:10:30;15.45;;;7.95;;
70426;SDS011;57872;55.432;37.248;2023-06-14T00:15:31;16.67;;;7.50;;
70426;SDS011;57872;55.432;37.248;2023-06-14T00:20:32;14.65;;;7.40;;
70426;SDS011;57872;55.432;37.248;2023-06-14T00:25:33;17.40;;;8.02;;
70426;SDS011;57872;55.432;37.248;2023-06-14T00:30:34;16.88;;;7.22;;
70426;SDS011;57872;55.432;37.248;2023-06-14T00:35:36;15.95;;;7.90;;
70426;SDS011;57872;55.432;37.248;2023-06-14T00:40:38;14.85;;;7.15;;
70426;SDS011;57872;55.432;37.248;2023-06-14T00:45:38;17.40;;;7.70;;
70426;SDS011;57872;55.432;37.248;2023-06-14T00:50:39;16.35;;;7.97;;
70426;SDS011;57872;55.432;37.248;2023-06-14T01:00:47;18.35;;;8.20;;
70426;SDS011;57872;55.432;37.248;2023-06-14T01:05:49;17.10;;;6.90;;
70426;SDS011;57872;55.432;37.248;2023-06-14T01:11:02;18.08;;;7.10;;
70426;SDS011;57872;55.432;37.248;2023-06-14T01:16:08;14.43;;;6.40;;
70426;SDS011;57872;55.432;37.248;2023-06-14T01:21:42;16.02;;;6.85;;
70426;SDS011;57872;55.432;37.248;2023-06-14T01:26:42;13.13;;;7.22;;
70426;SDS011;57872;55.432;37.248;2023-06-14T01:31:49;15.80;;;7.30;;
70426;SDS011;57872;55.432;37.248;2023-06-14T01:36:50;14.88;;;7.80;;
70426;SDS011;57872;55.432;37.248;2023-06-14T01:41:52;15.93;;;7.38;;
70426;SDS011;57872;55.432;37.248;2023-06-14T01:46:53;16.98;;;7.85;;
70426;SDS011;57872;55.432;37.248;2023-06-14T01:51:56;15.10;;;6.93;;
70426;SDS011;57872;55.432;37.248;2023-06-14T01:56:57;13.68;;;6.43;;
70426;SDS011;57872;55.432;37.248;2023-06-14T02:01:58;13.32;;;6.75;;
70426;SDS011;57872;55.432;37.248;2023-06-14T02:06:58;16.95;;;6.78;;
70426;SDS011;57872;55.432;37.248;2023-06-14T02:11:59;13.95;;;6.55;;
70426;SDS011;57872;55.432;37.248;2023-06-14T02:17:01;16.38;;;6.97;;
70426;SDS011;57872;55.432;37.248;2023-06-14T02:22:02;16.65;;;7.55;;
70426;SDS011;57872;55.432;37.248;2023-06-14T02:27:03;14.45;;;7.43;;
70426;SDS011;57872;55.432;37.248;2023-06-14T02:32:04;16.55;;;7.20;;
70426;SDS011;57872;55.432;37.248;2023-06-14T02:37:07;18.38;;;7.88;;
70426;SDS011;57872;55.432;37.248;2023-06-14T02:42:08;16.30;;;7.72;;
70426;SDS011;57872;55.432;37.248;2023-06-14T02:47:09;16.70;;;8.40;;
70426;SDS011;57872;55.432;37.248;2023-06-14T02:52:10;18.05;;;7.55;;
70426;SDS011;57872;55.432;37.248;2023-06-14T02:57:11;17.55;;;7.75;;
70426;SDS011;57872;55.432;37.248;2023-06-14T03:02:15;19.88;;;7.30;;
70426;SDS011;57872;55.432;37.248;2023-06-14T03:07:17;15.30;;;7.80;;
70426;SDS011;57872;55.432;37.248;2023-06-14T03:12:27;19.10;;;7.88;;
70426;SDS011;57872;55.432;37.248;2023-06-14T03:17:29;16.38;;;7.20;;
70426;SDS011;57872;55.432;37.248;2023-06-14T03:22:35;15.00;;;6.93;;
70426;SDS011;57872;55.432;37.248;2023-06-14T03:27:36;12.95;;;6.55;;
70426;SDS011;57872;55.432;37.248;2023-06-14T03:32:38;15.97;;;7.00;;
70426;SDS011;57872;55.432;37.248;2023-06-14T03:37:40;17.58;;;7.75;;
70426;SDS011;57872;55.432;37.248;2023-06-14T03:42:47;14.82;;;7.00;;
70426;SDS011;57872;55.432;37.248;2023-06-14T03:48:29;19.70;;;8.18;;
70426;SDS011;57872;55.432;37.248;2023-06-14T03:53:30;14.80;;;7.68;;
70426;SDS011;57872;55.432;37.248;2023-06-14T03:58:37;15.77;;;8.38;;
70426;SDS011;57872;55.432;37.248;2023-06-14T04:03:47;14.93;;;6.85;;
70426;SDS011;57872;55.432;37.248;2023-06-14T04:08:51;14.25;;;6.78;;
70426;SDS011;57872;55.432;37.248;2023-06-14T04:13:52;15.35;;;6.25;;
70426;SDS011;57872;55.432;37.248;2023-06-14T04:18:54;15.10;;;6.72;;
70426;SDS011;57872;55.432;37.248;2023-06-14T04:23:56;11.40;;;6.20;;
70426;SDS011;57872;55.432;37.248;2023-06-14T04:29:01;11.02;;;5.78;;
70426;SDS011;57872;55.432;37.248;2023-06-14T04:34:08;12.30;;;4.93;;
70426;SDS011;57872;55.432;37.248;2023-06-14T04:39:09;9.63;;;4.80;;
70426;SDS011;57872;55.432;37.248;2023-06-14T04:44:10;9.27;;;4.65;;
70426;SDS011;57872;55.432;37.248;2023-06-14T04:49:15;11.45;;;4.80;;
70426;SDS011;57872;55.432;37.248;2023-06-14T04:54:17;13.23;;;4.43;;
70426;SDS011;57872;55.432;37.248;2023-06-14T04:59:20;10.07;;;3.88;;
70426;SDS011;57872;55.432;37.248;2023-06-14T05:11:11;10.90;;;3.40;;
70426;SDS011;57872;55.432;37.248;2023-06-14T05:16:45;12.27;;;3.70;;
70426;SDS011;57872;55.432;37.248;2023-06-14T05:22:06;12.27;;;3.45;;
70426;SDS011;57872;55.432;37.248;2023-06-14T05:27:21;10.77;;;3.45;;
70426;SDS011;57872;55.432;37.248;2023-06-14T05:32:26;9.95;;;3.25;;
70426;SDS011;57872;55.432;37.248;2023-06-14T05:37:27;8.93;;;3.03;;
70426;SDS011;57872;55.432;37.248;2023-06-14T05:42:27;9.15;;;3.28;;
70426;SDS011;57872;55.432;37.248;2023-06-14T05:47:28;10.48;;;3.20;;
70426;SDS011;57872;55.432;37.248;2023-06-14T05:52:28;8.02;;;3.22;;
70426;SDS011;57872;55.432;37.248;2023-06-14T05:57:32;9.40;;;3.05;;
70426;SDS011;57872;55.432;37.248;2023-06-14T06:02:32;9.70;;;3.08;;
70426;SDS011;57872;55.432;37.248;2023-06-14T06:07:33;9.23;;;3.65;;
70426;SDS011;57872;55.432;37.248;2023-06-14T06:12:34;13.77;;;4.25;;
70426;SDS011;57872;55.432;37.248;2023-06-14T06:17:36;9.50;;;3.33;;
70426;SDS011;57872;55.432;37.248;2023-06-14T06:22:40;7.53;;;3.10;;
70426;SDS011;57872;55.432;37.248;2023-06-14T06:27:41;10.52;;;3.72;;
70426;SDS011;57872;55.432;37.248;2023-06-14T06:38:41;10.70;;;3.17;;
70426;SDS011;57872;55.432;37.248;2023-06-14T06:44:16;11.25;;;3.30;;
70426;SDS011;57872;55.432;37.248;2023-06-14T06:49:26;10.90;;;3.92;;
70426;SDS011;57872;55.432;37.248;2023-06-14T07:00:02;10.52;;;3.83;;
70426;SDS011;57872;55.432;37.248;2023-06-14T07:05:08;9.40;;;3.90;;
70426;SDS011;57872;55.432;37.248;2023-06-14T07:10:09;12.13;;;3.92;;
70426;SDS011;57872;55.432;37.248;2023-06-14T07:15:10;9.00;;;4.40;;
70426;SDS011;57872;55.432;37.248;2023-06-14T07:20:11;8.57;;;3.70;;
70426;SDS011;57872;55.432;37.248;2023-06-14T07:30:25;7.85;;;3.53;;
70426;SDS011;57872;55.432;37.248;2023-06-14T07:35:52;10.90;;;3.90;;
70426;SDS011;57872;55.432;37.248;2023-06-14T07:40:53;7.75;;;3.38;;
70426;SDS011;57872;55.432;37.248;2023-06-14T07:46:03;11.38;;;3.72;;
70426;SDS011;57872;55.432;37.248;2023-06-14T07:51:03;10.13;;;3.97;;
70426;SDS011;57872;55.432;37.248;2023-06-14T07:56:05;15.82;;;4.15;;
70426;SDS011;57872;55.432;37.248;2023-06-14T08:01:05;9.55;;;4.03;;
70426;SDS011;57872;55.432;37.248;2023-06-14T08:06:17;16.73;;;9.48;;
70426;SDS011;57872;55.432;37.248;2023-06-14T08:11:21;9.05;;;3.83;;
70426;SDS011;57872;55.432;37.248;2023-06-14T08:16:24;12.05;;;5.70;;
70426;SDS011;57872;55.432;37.248;2023-06-14T08:21:25;10.17;;;3.90;;
70426;SDS011;57872;55.432;37.248;2023-06-14T08:27:12;10.98;;;4.15;;
70426;SDS011;57872;55.432;37.248;2023-06-14T08:32:16;9.45;;;4.53;;
70426;SDS011;57872;55.432;37.248;2023-06-14T08:37:20;9.65;;;4.10;;
70426;SDS011;57872;55.432;37.248;2023-06-14T08:42:21;12.63;;;4.57;;
70426;SDS011;57872;55.432;37.248;2023-06-14T08:47:22;8.15;;;4.40;;
70426;SDS011;57872;55.432;37.248;2023-06-14T08:52:28;10.90;;;4.13;;
70426;SDS011;57872;55.432;37.248;2023-06-14T08:57:49;8.68;;;4.10;;
70426;SDS011;57872;55.432;37.248;2023-06-14T09:02:51;10.25;;;4.63;;
70426;SDS011;57872;55.432;37.248;2023-06-14T09:08:06;12.13;;;5.35;;
70426;SDS011;57872;55.432;37.248;2023-06-14T09:13:11;10.32;;;4.40;;
70426;SDS011;57872;55.432;37.248;2023-06-14T09:18:15;10.18;;;4.88;;
70426;SDS011;57872;55.432;37.248;2023-06-14T09:23:20;10.20;;;3.90;;
70426;SDS011;57872;55.432;37.248;2023-06-14T09:34:06;11.20;;;4.38;;
70426;SDS011;57872;55.432;37.248;2023-06-14T09:39:10;8.85;;;4.50;;
70426;SDS011;57872;55.432;37.248;2023-06-14T09:44:11;9.45;;;4.38;;
70426;SDS011;57872;55.432;37.248;2023-06-14T09:49:44;10.52;;;4.47;;
70426;SDS011;57872;55.432;37.248;2023-06-14T09:55:00;8.98;;;4.07;;
70426;SDS011;57872;55.432;37.248;2023-06-14T10:05:19;10.38;;;4.90;;
70426;SDS011;57872;55.432;37.248;2023-06-14T10:10:21;10.40;;;4.50;;
70426;SDS011;57872;55.432;37.248;2023-06-14T10:26:40;11.38;;;3.88;;
70426;SDS011;57872;55.432;37.248;2023-06-14T10:31:56;10.82;;;4.40;;
70426;SDS011;57872;55.432;37.248;2023-06-14T10:42:12;12.02;;;4.68;;
70426;SDS011;57872;55.432;37.248;2023-06-14T10:52:52;11.25;;;4.65;;
70426;SDS011;57872;55.432;37.248;2023-06-14T10:58:24;10.30;;;4.57;;
70426;SDS011;57872;55.432;37.248;2023-06-14T11:03:43;9.68;;;5.25;;
70426;SDS011;57872;55.432;37.248;2023-06-14T11:14:03;11.90;;;4.43;;
70426;SDS011;57872;55.432;37.248;2023-06-14T11:19:05;9.63;;;4.88;;
70426;SDS011;57872;55.432;37.248;2023-06-14T11:24:09;13.52;;;4.82;;
70426;SDS011;57872;55.432;37.248;2023-06-14T11:29:22;12.05;;;4.70;;
70426;SDS011;57872;55.432;37.248;2023-06-14T11:34:30;9.30;;;4.10;;
70426;SDS011;57872;55.432;37.248;2023-06-14T11:39:33;10.63;;;4.60;;
70426;SDS011;57872;55.432;37.248;2023-06-14T11:50:14;14.10;;;4.82;;
70426;SDS011;57872;55.432;37.248;2023-06-14T11:55:18;11.73;;;4.55;;
70426;SDS011;57872;55.432;37.248;2023-06-14T12:00:19;8.17;;;4.37;;
70426;SDS011;57872;55.432;37.248;2023-06-14T12:05:25;11.38;;;4.30;;
70426;SDS011;57872;55.432;37.248;2023-06-14T12:16:04;10.23;;;4.40;;
70426;SDS011;57872;55.432;37.248;2023-06-14T12:21:08;11.13;;;4.93;;
70426;SDS011;57872;55.432;37.248;2023-06-14T12:26:12;13.38;;;4.32;;
70426;SDS011;57872;55.432;37.248;2023-06-14T12:31:14;9.63;;;4.68;;
70426;SDS011;57872;55.432;37.248;2023-06-14T12:36:16;11.75;;;4.85;;
70426;SDS011;57872;55.432;37.248;2023-06-14T12:41:17;12.87;;;4.47;;
70426;SDS011;57872;55.432;37.248;2023-06-14T12:46:21;8.77;;;4.50;;
70426;SDS011;57872;55.432;37.248;2023-06-14T12:57:15;9.38;;;4.50;;
70426;SDS011;57872;55.432;37.248;2023-06-14T13:03:01;9.07;;;3.90;;
70426;SDS011;57872;55.432;37.248;2023-06-14T13:07:50;10.15;;;4.28;;
70426;SDS011;57872;55.432;37.248;2023-06-14T13:12:51;10.57;;;4.72;;
70426;SDS011;57872;55.432;37.248;2023-06-14T13:18:06;10.73;;;4.15;;
70426;SDS011;57872;55.432;37.248;2023-06-14T13:23:07;10.50;;;4.40;;
70426;SDS011;57872;55.432;37.248;2023-06-14T13:28:08;9.18;;;4.40;;
70426;SDS011;57872;55.432;37.248;2023-06-14T13:33:09;15.00;;;5.00;;
70426;SDS011;57872;55.432;37.248;2023-06-14T13:38:10;9.67;;;3.90;;
70426;SDS011;57872;55.432;37.248;2023-06-14T13:43:11;12.87;;;4.53;;
70426;SDS011;57872;55.432;37.248;2023-06-14T13:48:12;14.30;;;4.97;;
70426;SDS011;57872;55.432;37.248;2023-06-14T13:53:13;9.90;;;4.25;;
70426;SDS011;57872;55.432;37.248;2023-06-14T14:10:24;10.32;;;4.88;;
70426;SDS011;57872;55.432;37.248;2023-06-14T14:22:26;11.07;;;4.10;;
70426;SDS011;57872;55.432;37.248;2023-06-14T14:27:27;9.43;;;4.53;;
70426;SDS011;57872;55.432;37.248;2023-06-14T14:32:28;12.60;;;4.83;;
70426;SDS011;57872;55.432;37.248;2023-06-14T14:37:29;8.53;;;3.90;;
70426;SDS011;57872;55.432;37.248;2023-06-14T14:42:30;8.37;;;4.13;;
70426;SDS011;57872;55.432;37.248;2023-06-14T14:47:30;14.07;;;4.20;;
70426;SDS011;57872;55.432;37.248;2023-06-14T14:52:31;10.23;;;4.27;;
70426;SDS011;57872;55.432;37.248;2023-06-14T14:57:32;17.10;;;11.63;;
70426;SDS011;57872;55.432;37.248;2023-06-14T15:02:35;9.63;;;5.45;;
70426;SDS011;57872;55.432;37.248;2023-06-14T15:07:37;10.50;;;3.60;;
70426;SDS011;57872;55.432;37.248;2023-06-14T15:13:06;11.60;;;4.97;;
70426;SDS011;57872;55.432;37.248;2023-06-14T15:18:13;11.57;;;4.28;;
70426;SDS011;57872;55.432;37.248;2023-06-14T15:23:21;8.75;;;4.18;;
70426;SDS011;57872;55.432;37.248;2023-06-14T15:28:23;12.25;;;4.03;;
70426;SDS011;57872;55.432;37.248;2023-06-14T15:33:36;10.20;;;4.30;;
70426;SDS011;57872;55.432;37.248;2023-06-14T15:38:41;11.07;;;4.30;;
70426;SDS011;57872;55.432;37.248;2023-06-14T15:43:46;10.73;;;4.03;;
70426;SDS011;57872;55.432;37.248;2023-06-14T15:48:46;15.70;;;4.97;;
70426;SDS011;57872;55.432;37.248;2023-06-14T15:53:50;8.77;;;4.27;;
70426;SDS011;57872;55.432;37.248;2023-06-14T15:58:52;9.55;;;4.22;;
70426;SDS011;57872;55.432;37.248;2023-06-14T16:03:53;10.37;;;4.63;;
70426;SDS011;57872;55.432;37.248;2023-06-14T16:08:56;11.53;;;5.03;;
70426;SDS011;57872;55.432;37.248;2023-06-14T16:14:35;14.35;;;4.45;;
70426;SDS011;57872;55.432;37.248;2023-06-14T16:19:36;10.68;;;4.22;;
70426;SDS011;57872;55.432;37.248;2023-06-14T16:24:37;10.87;;;4.07;;
70426;SDS011;57872;55.432;37.248;2023-06-14T16:29:39;10.13;;;4.13;;
70426;SDS011;57872;55.432;37.248;2023-06-14T16:34:40;9.43;;;4.32;;
70426;SDS011;57872;55.432;37.248;2023-06-14T16:39:40;12.40;;;5.33;;
70426;SDS011;57872;55.432;37.248;2023-06-14T16:44:41;12.43;;;6.33;;
70426;SDS011;57872;55.432;37.248;2023-06-14T16:49:42;15.87;;;5.50;;
70426;SDS011;57872;55.432;37.248;2023-06-14T16:54:45;16.23;;;5.88;;
70426;SDS011;57872;55.432;37.248;2023-06-14T16:59:46;10.23;;;4.80;;
70426;SDS011;57872;55.432;37.248;2023-06-14T17:04:47;15.40;;;9.10;;
70426;SDS011;57872;55.432;37.248;2023-06-14T17:09:48;11.82;;;4.55;;
70426;SDS011;57872;55.432;37.248;2023-06-14T17:14:48;10.80;;;3.60;;
70426;SDS011;57872;55.432;37.248;2023-06-14T17:19:49;10.63;;;3.90;;
70426;SDS011;57872;55.432;37.248;2023-06-14T17:24:50;8.35;;;4.03;;
70426;SDS011;57872;55.432;37.248;2023-06-14T17:29:53;9.80;;;4.22;;
70426;SDS011;57872;55.432;37.248;2023-06-14T17:34:53;8.95;;;3.90;;
70426;SDS011;57872;55.432;37.248;2023-06-14T17:39:54;11.57;;;4.03;;
70426;SDS011;57872;55.432;37.248;2023-06-14T17:44:55;10.48;;;4.43;;
70426;SDS011;57872;55.432;37.248;2023-06-14T17:49:56;12.53;;;4.10;;
70426;SDS011;57872;55.432;37.248;2023-06-14T17:54:59;10.13;;;4.20;;
70426;SDS011;57872;55.432;37.248;2023-06-14T18:00:09;12.18;;;4.25;;
70426;SDS011;57872;55.432;37.248;2023-06-14T18:05:13;12.00;;;4.20;;
70426;SDS011;57872;55.432;37.248;2023-06-14T18:10:14;8.63;;;4.20;;
70426;SDS011;57872;55.432;37.248;2023-06-14T18:15:18;12.77;;;4.22;;
70426;SDS011;57872;55.432;37.248;2023-06-14T18:20:18;10.65;;;4.45;;
70426;SDS011;57872;55.432;37.248;2023-06-14T18:25:19;10.77;;;3.50;;
70426;SDS011;57872;55.432;37.248;2023-06-14T18:30:20;10.93;;;4.95;;
70426;SDS011;57872;55.432;37.248;2023-06-14T18:35:21;14.10;;;4.97;;
70426;SDS011;57872;55.432;37.248;2023-06-14T18:40:21;14.77;;;4.57;;
70426;SDS011;57872;55.432;37.248;2023-06-14T18:45:22;12.68;;;4.78;;
70426;SDS011;57872;55.432;37.248;2023-06-14T18:50:25;17.15;;;5.50;;
70426;SDS011;57872;55.432;37.248;2023-06-14T18:55:26;15.55;;;5.35;;
70426;SDS011;57872;55.432;37.248;2023-06-14T19:00:26;22.17;;;8.05;;
70426;SDS011;57872;55.432;37.248;2023-06-14T19:05:30;26.70;;;10.45;;
70426;SDS011;57872;55.432;37.248;2023-06-14T19:10:30;26.98;;;10.07;;
70426;SDS011;57872;55.432;37.248;2023-06-14T19:15:31;23.35;;;10.85;;
70426;SDS011;57872;55.432;37.248;2023-06-14T19:20:32;20.35;;;10.48;;
70426;SDS011;57872;55.432;37.248;2023-06-14T19:25:33;20.20;;;9.23;;
70426;SDS011;57872;55.432;37.248;2023-06-14T19:30:34;24.05;;;11.13;;
70426;SDS011;57872;55.432;37.248;2023-06-14T19:35:36;21.30;;;9.73;;
70426;SDS011;57872;55.432;37.248;2023-06-14T19:40:37;19.27;;;8.57;;
70426;SDS011;57872;55.432;37.248;2023-06-14T19:45:38;16.70;;;8.50;;
70426;SDS011;57872;55.432;37.248;2023-06-14T19:50:39;17.10;;;8.73;;
70426;SDS011;57872;55.432;37.248;2023-06-14T19:55:39;17.15;;;8.07;;
70426;SDS011;57872;55.432;37.248;2023-06-14T20:00:40;18.55;;;7.50;;
70426;SDS011;57872;55.432;37.248;2023-06-14T20:05:41;12.98;;;7.25;;
70426;SDS011;57872;55.432;37.248;2023-06-14T20:10:42;12.02;;;7.18;;
70426;SDS011;57872;55.432;37.248;2023-06-14T20:15:55;16.30;;;6.68;;
70426;SDS011;57872;55.432;37.248;2023-06-14T20:21:14;15.30;;;6.40;;
70426;SDS011;57872;55.432;37.248;2023-06-14T20:26:15;18.02;;;7.35;;
70426;SDS011;57872;55.432;37.248;2023-06-14T20:31:16;14.77;;;6.75;;
70426;SDS011;57872;55.432;37.248;2023-06-14T20:41:19;17.67;;;7.47;;
70426;SDS011;57872;55.432;37.248;2023-06-14T20:46:20;16.95;;;6.65;;
70426;SDS011;57872;55.432;37.248;2023-06-14T20:51:21;15.95;;;7.13;;
70426;SDS011;57872;55.432;37.248;2023-06-14T20:56:22;17.10;;;7.30;;
70426;SDS011;57872;55.432;37.248;2023-06-14T21:01:22;12.20;;;7.00;;
70426;SDS011;57872;55.432;37.248;2023-06-14T21:06:33;12.25;;;6.95;;
70426;SDS011;57872;55.432;37.248;2023-06-14T21:11:37;20.95;;;7.93;;
70426;SDS011;57872;55.432;37.248;2023-06-14T21:16:37;16.70;;;7.55;;
70426;SDS011;57872;55.432;37.248;2023-06-14T21:21:38;13.98;;;7.38;;
70426;SDS011;57872;55.432;37.248;2023-06-14T21:26:38;15.68;;;7.03;;
70426;SDS011;57872;55.432;37.248;2023-06-14T21:31:40;16.88;;;7.35;;
70426;SDS011;57872;55.432;37.248;2023-06-14T21:36:40;15.73;;;7.38;;
70426;SDS011;57872;55.432;37.248;2023-06-14T21:41:41;13.43;;;7.55;;
70426;SDS011;57872;55.432;37.248;2023-06-14T21:46:41;19.45;;;7.80;;
70426;SDS011;57872;55.432;37.248;2023-06-14T21:51:42;14.90;;;7.10;;
70426;SDS011;57872;55.432;37.248;2023-06-14T21:56:43;16.98;;;8.25;;
70426;SDS011;57872;55.432;37.248;2023-06-14T22:01:44;13.93;;;7.00;;
70426;SDS011;57872;55.432;37.248;2023-06-14T22:06:44;17.95;;;7.70;;
70426;SDS011;57872;55.432;37.248;2023-06-14T22:11:45;12.93;;;7.25;;
70426;SDS011;57872;55.432;37.248;2023-06-14T22:16:47;17.63;;;8.25;;
70426;SDS011;57872;55.432;37.248;2023-06-14T22:21:48;15.18;;;7.97;;
70426;SDS011;57872;55.432;37.248;2023-06-14T22:31:56;17.88;;;8.32;;
70426;SDS011;57872;55.432;37.248;2023-06-14T22:36:57;14.20;;;8.00;;
70426;SDS011;57872;55.432;37.248;2023-06-14T22:42:04;17.15;;;8.20;;
70426;SDS011;57872;55.432;37.248;2023-06-14T22:47:06;14.83;;;7.77;;
70426;SDS011;57872;55.432;37.248;2023-06-14T22:52:10;14.77;;;7.60;;
70426;SDS011;57872;55.432;37.248;2023-06-14T22:57:11;15.93;;;8.18;;
70426;SDS011;57872;55.432;37.248;2023-06-14T23:02:17;18.95;;;8.43;;
70426;SDS011;57872;55.432;37.248;2023-06-14T23:07:18;17.17;;;7.63;;
70426;SDS011;57872;55.432;37.248;2023-06-14T23:12:26;14.15;;;7.43;;
70426;SDS011;57872;55.432;37.248;2023-06-14T23:17:29;23.65;;;11.40;;
70426;SDS011;57872;55.432;37.248;2023-06-14T23:22:30;15.23;;;8.30;;
70426;SDS011;57872;55.432;37.248;2023-06-14T23:27:35;15.82;;;8.05;;
70426;SDS011;57872;55.432;37.248;2023-06-14T23:32:37;15.00;;;7.95;;
70426;SDS011;57872;55.432;37.248;2023-06-14T23:37:39;18.87;;;8.47;;
70426;SDS011;57872;55.432;37.248;2023-06-14T23:42:41;14.93;;;7.85;;
70426;SDS011;57872;55.432;37.248;2023-06-14T23:47:42;15.68;;;7.55;;
70426;SDS011;57872;55.432;37.248;2023-06-14T23:52:43;18.13;;;9.05;;
70426;SDS011;57872;55.432;37.248;2023-06-14T23:57:44;16.65;;;7.93;;
